Time;durP1;ratioP1;P1;durP2;ratioP2;P2;SDS_P1;SDS_P2;PMS_P1;PMS_P2;Temp;Humidity;BMP_temperature;BMP_pressure;BME280_temperature;BME280_humidity;BME280_pressure;Samples;Min_cycle;Max_cycle;Signal;HPM_P1;HPM_P2
2021/08/17 00:00:44;;;;;;;12.30;9.48;;;;;;;;;;5036025;28;20049;-81
2021/08/17 00:03:10;;;;;;;12.48;9.13;;;;;;;;;;5001226;28;20570;-81
2021/08/17 00:05:37;;;;;;;12.93;9.10;;;;;;;;;;5033898;28;20068;-81
2021/08/17 00:08:03;;;;;;;11.90;8.75;;;;;;;;;;5024208;28;20098;-81
2021/08/17 00:10:28;;;;;;;13.15;9.93;;;;;;;;;;5012970;28;20057;-81
2021/08/17 00:12:54;;;;;;;16.45;9.38;;;;;;;;;;5017440;28;20110;-82
2021/08/17 00:15:19;;;;;;;11.65;8.95;;;;;;;;;;5017415;28;20046;-82
2021/08/17 00:17:45;;;;;;;15.13;10.50;;;;;;;;;;5008234;28;20055;-81
2021/08/17 00:20:11;;;;;;;14.63;11.38;;;;;;;;;;5035099;28;20039;-81
2021/08/17 00:22:37;;;;;;;15.82;10.60;;;;;;;;;;5009379;28;20028;-82
2021/08/17 00:25:03;;;;;;;15.20;11.73;;;;;;;;;;5009862;28;20513;-82
2021/08/17 00:27:29;;;;;;;14.57;11.95;;;;;;;;;;5036942;28;20403;-82
2021/08/17 00:29:54;;;;;;;15.70;11.27;;;;;;;;;;5020411;28;20032;-82
2021/08/17 00:32:20;;;;;;;14.43;11.63;;;;;;;;;;5020746;28;20087;-81
2021/08/17 00:34:45;;;;;;;13.95;10.93;;;;;;;;;;5033021;28;20041;-82
2021/08/17 00:37:15;;;;;;;16.23;12.23;;;;;;;;;;5017030;28;20041;-82
2021/08/17 00:39:40;;;;;;;14.27;11.55;;;;;;;;;;5007647;28;20083;-82
2021/08/17 00:42:07;;;;;;;16.20;12.18;;;;;;;;;;5002160;28;20068;-82
2021/08/17 00:44:33;;;;;;;15.02;12.02;;;;;;;;;;5048402;28;20104;-82
2021/08/17 00:46:58;;;;;;;15.75;11.63;;;;;;;;;;5034077;28;20049;-81
2021/08/17 00:49:24;;;;;;;16.58;12.50;;;;;;;;;;5026372;28;20039;-82
2021/08/17 00:51:51;;;;;;;16.55;11.98;;;;;;;;;;5017116;28;20128;-81
2021/08/17 00:54:17;;;;;;;15.68;13.00;;;;;;;;;;5002305;28;20033;-81
2021/08/17 00:56:42;;;;;;;16.58;12.82;;;;;;;;;;5036511;28;20036;-82
2021/08/17 00:59:09;;;;;;;16.13;12.63;;;;;;;;;;5014857;28;20025;-82
2021/08/17 01:01:34;;;;;;;16.70;12.02;;;;;;;;;;5027314;28;20511;-81
2021/08/17 01:04:02;;;;;;;15.02;11.60;;;;;;;;;;5019970;28;20050;-82
2021/08/17 01:06:33;;;;;;;18.20;13.43;;;;;;;;;;5014464;28;20045;-82
2021/08/17 01:09:02;;;;;;;17.45;12.38;;;;;;;;;;5020771;28;20040;-82
2021/08/17 01:11:30;;;;;;;15.40;11.88;;;;;;;;;;5013799;28;20388;-82
2021/08/17 01:13:56;;;;;;;16.75;12.15;;;;;;;;;;5000296;28;20030;-82
2021/08/17 01:16:22;;;;;;;15.90;12.32;;;;;;;;;;4999312;28;20384;-81
2021/08/17 01:18:48;;;;;;;14.15;11.30;;;;;;;;;;5015880;28;20040;-82
2021/08/17 01:21:13;;;;;;;17.38;11.30;;;;;;;;;;5017003;28;20101;-82
2021/08/17 01:23:39;;;;;;;16.75;12.07;;;;;;;;;;4999220;28;20032;-81
2021/08/17 01:26:04;;;;;;;17.25;11.80;;;;;;;;;;5016864;28;20044;-81
2021/08/17 01:28:30;;;;;;;16.63;11.60;;;;;;;;;;5000776;28;20499;-81
2021/08/17 01:31:03;;;;;;;16.90;12.90;;;;;;;;;;5000695;28;20044;-82
2021/08/17 01:33:28;;;;;;;16.77;11.77;;;;;;;;;;5025508;28;20544;-82
2021/08/17 01:35:54;;;;;;;14.75;12.75;;;;;;;;;;5036395;28;20044;-82
2021/08/17 01:38:20;;;;;;;15.60;11.43;;;;;;;;;;5026952;28;20489;-82
2021/08/17 01:40:46;;;;;;;14.82;11.88;;;;;;;;;;5015677;28;20106;-82
2021/08/17 01:43:12;;;;;;;15.70;12.88;;;;;;;;;;5019496;28;20037;-82
2021/08/17 01:45:37;;;;;;;15.55;11.93;;;;;;;;;;5020149;28;20036;-82
2021/08/17 01:48:05;;;;;;;14.98;11.52;;;;;;;;;;5020020;28;20056;-82
2021/08/17 01:50:31;;;;;;;16.38;12.10;;;;;;;;;;5035414;28;20037;-82
2021/08/17 01:52:56;;;;;;;16.02;12.80;;;;;;;;;;5003801;28;20461;-82
2021/08/17 01:55:22;;;;;;;20.13;13.02;;;;;;;;;;5004636;28;20039;-82
2021/08/17 01:57:48;;;;;;;13.43;11.02;;;;;;;;;;5020095;28;20060;-82
2021/08/17 02:00:13;;;;;;;15.20;11.20;;;;;;;;;;5036639;28;20036;-83
2021/08/17 02:02:39;;;;;;;17.92;12.30;;;;;;;;;;5020204;28;20032;-80
2021/08/17 02:05:05;;;;;;;14.68;12.20;;;;;;;;;;5025618;28;20876;-80
2021/08/17 02:07:30;;;;;;;16.15;12.18;;;;;;;;;;5019784;28;20033;-81
2021/08/17 02:09:56;;;;;;;15.43;12.10;;;;;;;;;;5019636;28;20040;-81
2021/08/17 02:12:21;;;;;;;15.70;11.88;;;;;;;;;;5020127;28;20045;-81
2021/08/17 02:14:47;;;;;;;17.00;11.48;;;;;;;;;;5003489;28;20033;-80
2021/08/17 02:17:12;;;;;;;15.82;12.10;;;;;;;;;;5015782;28;20037;-80
2021/08/17 02:19:38;;;;;;;16.42;11.43;;;;;;;;;;5019486;28;20037;-81
2021/08/17 02:22:03;;;;;;;15.57;11.80;;;;;;;;;;5014303;28;20033;-81
2021/08/17 02:24:29;;;;;;;17.10;12.02;;;;;;;;;;5051963;28;20037;-80
2021/08/17 02:26:54;;;;;;;17.13;11.98;;;;;;;;;;5025653;28;20043;-80
2021/08/17 02:29:20;;;;;;;17.15;12.38;;;;;;;;;;5026270;28;20044;-80
2021/08/17 02:31:46;;;;;;;17.00;11.88;;;;;;;;;;5042351;28;20036;-80
2021/08/17 02:34:11;;;;;;;15.05;11.60;;;;;;;;;;5024244;28;20115;-80
2021/08/17 02:36:37;;;;;;;16.48;13.65;;;;;;;;;;5027154;28;20033;-80
2021/08/17 02:39:03;;;;;;;15.48;11.20;;;;;;;;;;5018961;28;20095;-81
2021/08/17 02:41:28;;;;;;;16.67;12.27;;;;;;;;;;5026288;28;20049;-80
2021/08/17 02:43:53;;;;;;;16.77;12.05;;;;;;;;;;5002878;28;20384;-80
2021/08/17 02:46:19;;;;;;;16.67;12.38;;;;;;;;;;5010755;28;20090;-81
2021/08/17 02:48:45;;;;;;;15.98;12.57;;;;;;;;;;5035742;28;20109;-80
2021/08/17 02:51:10;;;;;;;16.40;11.48;;;;;;;;;;5022908;28;20580;-80
2021/08/17 02:53:36;;;;;;;19.70;13.32;;;;;;;;;;5017400;28;20029;-81
2021/08/17 02:56:01;;;;;;;17.60;12.60;;;;;;;;;;5018969;28;20052;-81
2021/08/17 02:58:27;;;;;;;15.95;11.98;;;;;;;;;;5021883;28;20036;-80
2021/08/17 03:00:52;;;;;;;16.90;12.73;;;;;;;;;;5021813;28;20119;-80
2021/08/17 03:03:18;;;;;;;17.25;11.63;;;;;;;;;;5034950;28;20090;-80
2021/08/17 03:05:43;;;;;;;18.42;12.27;;;;;;;;;;5035083;28;20510;-80
2021/08/17 03:08:09;;;;;;;15.98;11.48;;;;;;;;;;5017991;28;20036;-81
2021/08/17 03:10:36;;;;;;;15.18;11.23;;;;;;;;;;5018410;28;20392;-80
2021/08/17 03:13:03;;;;;;;17.30;12.48;;;;;;;;;;5033621;28;20033;-80
2021/08/17 03:15:34;;;;;;;17.88;13.48;;;;;;;;;;5036014;28;20094;-80
2021/08/17 03:18:04;;;;;;;18.30;12.07;;;;;;;;;;5023290;28;20867;-80
2021/08/17 03:20:30;;;;;;;17.67;12.73;;;;;;;;;;5034169;28;20032;-81
2021/08/17 03:22:55;;;;;;;15.32;11.75;;;;;;;;;;5004131;28;20037;-80
2021/08/17 03:25:21;;;;;;;19.27;12.65;;;;;;;;;;5033879;28;20523;-81
2021/08/17 03:27:46;;;;;;;17.77;12.65;;;;;;;;;;5001936;28;20033;-81
2021/08/17 03:30:13;;;;;;;15.68;11.00;;;;;;;;;;5001699;28;20128;-81
2021/08/17 03:32:40;;;;;;;18.23;12.70;;;;;;;;;;5002228;28;20032;-81
2021/08/17 03:35:07;;;;;;;14.95;11.57;;;;;;;;;;5008020;28;20036;-81
2021/08/17 03:37:32;;;;;;;15.45;11.60;;;;;;;;;;5033957;28;20053;-80
2021/08/17 03:39:58;;;;;;;17.98;11.77;;;;;;;;;;5017913;28;20116;-80
2021/08/17 03:42:23;;;;;;;16.42;11.27;;;;;;;;;;5032145;28;20037;-80
2021/08/17 03:44:49;;;;;;;16.48;11.38;;;;;;;;;;5001588;28;20033;-80
2021/08/17 03:47:14;;;;;;;17.90;11.75;;;;;;;;;;5014630;28;20423;-80
2021/08/17 03:49:40;;;;;;;17.20;11.82;;;;;;;;;;5001513;28;20037;-80
2021/08/17 03:52:06;;;;;;;15.82;11.40;;;;;;;;;;5022411;28;20036;-80
2021/08/17 03:54:31;;;;;;;15.40;11.25;;;;;;;;;;5053288;28;20037;-81
2021/08/17 03:56:56;;;;;;;17.38;11.70;;;;;;;;;;5022654;23;20414;-82
2021/08/17 03:59:22;;;;;;;16.65;11.85;;;;;;;;;;4953678;28;20097;-82
2021/08/17 04:01:47;;;;;;;16.67;11.32;;;;;;;;;;4919926;28;20416;-82
2021/08/17 04:04:13;;;;;;;14.07;10.95;;;;;;;;;;4927301;28;20073;-81
2021/08/17 04:06:39;;;;;;;14.25;10.75;;;;;;;;;;4955537;28;20038;-81
2021/08/17 04:09:04;;;;;;;13.82;10.60;;;;;;;;;;4939887;28;20038;-81
2021/08/17 04:11:30;;;;;;;15.30;11.02;;;;;;;;;;4936968;29;20085;-81
2021/08/17 04:13:55;;;;;;;18.05;12.35;;;;;;;;;;4952527;28;20106;-82
2021/08/17 04:16:21;;;;;;;17.92;11.77;;;;;;;;;;4951604;28;20032;-81
2021/08/17 04:18:46;;;;;;;15.18;10.80;;;;;;;;;;4952504;28;20035;-82
2021/08/17 04:21:12;;;;;;;15.38;10.55;;;;;;;;;;4951178;28;20038;-82
2021/08/17 04:23:37;;;;;;;13.98;9.95;;;;;;;;;;4955288;28;20031;-81
2021/08/17 04:26:02;;;;;;;15.85;11.07;;;;;;;;;;4955266;28;20039;-82
2021/08/17 04:28:28;;;;;;;13.43;10.48;;;;;;;;;;4955373;28;20085;-81
2021/08/17 04:30:54;;;;;;;15.70;11.20;;;;;;;;;;4956073;28;20070;-82
2021/08/17 04:33:19;;;;;;;15.20;11.35;;;;;;;;;;4939458;28;20108;-82
2021/08/17 04:35:45;;;;;;;13.63;10.63;;;;;;;;;;4948939;28;20043;-82
2021/08/17 04:38:10;;;;;;;14.48;10.27;;;;;;;;;;4920491;29;20130;-81
2021/08/17 04:40:36;;;;;;;12.07;9.63;;;;;;;;;;4920478;29;20039;-81
2021/08/17 04:43:01;;;;;;;14.50;10.20;;;;;;;;;;4920240;29;20054;-81
2021/08/17 04:45:27;;;;;;;12.68;10.00;;;;;;;;;;4920712;29;20031;-82
2021/08/17 04:47:53;;;;;;;15.45;11.07;;;;;;;;;;4921507;29;20068;-82
2021/08/17 04:50:19;;;;;;;12.80;9.65;;;;;;;;;;4948917;28;20044;-82
2021/08/17 04:52:45;;;;;;;13.38;10.30;;;;;;;;;;4933028;29;20036;-81
2021/08/17 04:55:10;;;;;;;14.35;10.15;;;;;;;;;;4952350;28;20409;-82
2021/08/17 04:57:46;;;;;;;15.52;11.10;;;;;;;;;;4938913;28;20043;-82
2021/08/17 05:00:12;;;;;;;13.75;10.18;;;;;;;;;;4971934;28;20498;-82
2021/08/17 05:02:38;;;;;;;14.00;10.60;;;;;;;;;;4923196;28;20133;-82
2021/08/17 05:05:06;;;;;;;13.10;10.52;;;;;;;;;;4917282;29;20048;-82
2021/08/17 05:07:31;;;;;;;14.75;10.27;;;;;;;;;;4933120;29;20508;-82
2021/08/17 05:09:58;;;;;;;12.52;9.65;;;;;;;;;;4933266;29;20046;-82
2021/08/17 05:12:24;;;;;;;13.23;9.93;;;;;;;;;;4932711;29;20058;-82
2021/08/17 05:14:49;;;;;;;15.15;10.65;;;;;;;;;;4932919;29;20498;-82
2021/08/17 05:17:15;;;;;;;12.25;9.20;;;;;;;;;;4933964;29;20122;-81
2021/08/17 05:19:40;;;;;;;12.38;9.50;;;;;;;;;;4920836;29;20043;-82
2021/08/17 05:22:05;;;;;;;13.55;9.90;;;;;;;;;;4920626;29;20043;-82
2021/08/17 05:24:31;;;;;;;15.18;9.98;;;;;;;;;;4936253;28;20036;-82
2021/08/17 05:26:56;;;;;;;12.98;9.85;;;;;;;;;;4935944;29;20044;-82
2021/08/17 05:29:22;;;;;;;18.20;10.38;;;;;;;;;;4920745;29;20046;-82
2021/08/17 05:31:52;;;;;;;13.45;9.60;;;;;;;;;;4964269;28;20049;-81
2021/08/17 05:34:19;;;;;;;10.88;9.25;;;;;;;;;;4923884;29;20039;-82
2021/08/17 05:36:44;;;;;;;12.93;10.45;;;;;;;;;;4959545;28;20043;-81
2021/08/17 05:39:10;;;;;;;13.02;9.23;;;;;;;;;;4955063;28;20039;-82
2021/08/17 05:41:35;;;;;;;12.13;9.60;;;;;;;;;;4955264;29;20035;-82
2021/08/17 05:44:01;;;;;;;13.35;10.27;;;;;;;;;;4955469;29;20043;-82
2021/08/17 05:46:26;;;;;;;14.23;10.88;;;;;;;;;;4951718;29;20050;-82
2021/08/17 05:48:52;;;;;;;13.20;10.02;;;;;;;;;;4943059;29;20035;-82
2021/08/17 05:51:17;;;;;;;12.30;9.40;;;;;;;;;;4955090;28;20039;-81
2021/08/17 05:53:43;;;;;;;14.95;10.07;;;;;;;;;;4954922;28;20043;-82
2021/08/17 05:56:08;;;;;;;13.00;9.48;;;;;;;;;;4941937;28;20038;-81
2021/08/17 05:58:34;;;;;;;13.15;9.52;;;;;;;;;;4958353;28;20382;-81
2021/08/17 06:01:29;;;;;;;12.18;9.73;;;;;;;;;;4953565;28;20568;-82
2021/08/17 06:03:55;;;;;;;12.52;9.18;;;;;;;;;;4961888;28;20066;-81
2021/08/17 06:06:20;;;;;;;14.95;9.95;;;;;;;;;;4965928;28;20129;-82
2021/08/17 06:08:48;;;;;;;13.13;9.57;;;;;;;;;;4946818;28;20050;-82
2021/08/17 06:11:14;;;;;;;12.32;9.50;;;;;;;;;;4956489;28;20073;-81
2021/08/17 06:13:39;;;;;;;14.93;10.00;;;;;;;;;;4957470;28;20034;-81
2021/08/17 06:16:05;;;;;;;12.30;9.18;;;;;;;;;;4929947;28;20081;-83
2021/08/17 06:18:31;;;;;;;12.27;9.55;;;;;;;;;;4961608;28;20054;-87
2021/08/17 06:21:00;;;;;;;14.43;9.38;;;;;;;;;;4948513;28;20510;-83
2021/08/17 06:23:26;;;;;;;12.80;9.75;;;;;;;;;;4931633;29;20040;-83
2021/08/17 06:25:52;;;;;;;13.45;9.15;;;;;;;;;;4961096;28;20043;-84
2021/08/17 06:28:17;;;;;;;13.30;9.93;;;;;;;;;;4937725;28;20050;-84
2021/08/17 06:30:46;;;;;;;14.93;10.05;;;;;;;;;;4938324;29;20439;-84
2021/08/17 06:33:11;;;;;;;14.55;10.38;;;;;;;;;;4954098;28;20039;-82
2021/08/17 06:35:37;;;;;;;11.82;8.90;;;;;;;;;;4969875;28;20042;-82
2021/08/17 06:38:02;;;;;;;12.80;9.57;;;;;;;;;;4945260;28;20047;-84
2021/08/17 06:40:28;;;;;;;13.95;10.65;;;;;;;;;;4938199;28;20040;-81
2021/08/17 06:42:54;;;;;;;14.23;9.68;;;;;;;;;;4953601;28;20516;-86
2021/08/17 06:45:20;;;;;;;13.50;9.35;;;;;;;;;;4943306;28;20039;-83
2021/08/17 06:47:46;;;;;;;15.75;9.90;;;;;;;;;;4916609;29;20043;-83
2021/08/17 06:50:12;;;;;;;12.90;8.45;;;;;;;;;;4950433;28;20070;-81
2021/08/17 06:52:38;;;;;;;14.20;9.15;;;;;;;;;;4966322;28;20067;-82
2021/08/17 06:55:03;;;;;;;15.90;10.05;;;;;;;;;;4950295;28;20599;-82
2021/08/17 06:57:29;;;;;;;13.85;9.70;;;;;;;;;;4934181;28;20050;-81
2021/08/17 06:59:54;;;;;;;15.27;9.80;;;;;;;;;;4920893;29;20105;-83
2021/08/17 07:02:20;;;;;;;16.48;10.80;;;;;;;;;;4950825;28;20823;-81
2021/08/17 07:04:45;;;;;;;14.23;10.68;;;;;;;;;;4940523;28;20042;-81
2021/08/17 07:07:10;;;;;;;15.63;10.15;;;;;;;;;;4935605;29;20066;-80
2021/08/17 07:09:36;;;;;;;15.18;10.15;;;;;;;;;;4933945;29;20148;-80
2021/08/17 07:12:02;;;;;;;17.30;10.77;;;;;;;;;;4947095;29;20047;-81
2021/08/17 07:14:27;;;;;;;16.92;10.82;;;;;;;;;;4946226;28;20130;-80
2021/08/17 07:16:53;;;;;;;15.35;11.25;;;;;;;;;;4930216;29;20086;-81
2021/08/17 07:19:18;;;;;;;15.10;10.27;;;;;;;;;;4965925;28;20093;-81
2021/08/17 07:21:44;;;;;;;15.30;9.70;;;;;;;;;;4956276;28;20126;-81
2021/08/17 07:24:09;;;;;;;18.05;10.13;;;;;;;;;;4928905;29;20082;-81
2021/08/17 07:26:35;;;;;;;17.15;10.15;;;;;;;;;;4933773;28;20056;-81
2021/08/17 07:29:00;;;;;;;15.70;10.35;;;;;;;;;;4918146;29;20036;-80
2021/08/17 07:31:26;;;;;;;17.27;9.50;;;;;;;;;;4934116;29;20040;-81
2021/08/17 07:33:51;;;;;;;14.75;9.40;;;;;;;;;;4934162;28;20038;-81
2021/08/17 07:36:17;;;;;;;17.73;10.77;;;;;;;;;;4926207;29;20039;-81
2021/08/17 07:38:42;;;;;;;15.50;9.57;;;;;;;;;;4932226;29;20127;-81
2021/08/17 07:41:08;;;;;;;17.23;10.70;;;;;;;;;;4936579;28;20028;-81
2021/08/17 07:43:33;;;;;;;14.23;9.55;;;;;;;;;;4953153;28;20042;-80
2021/08/17 07:45:59;;;;;;;17.05;10.48;;;;;;;;;;4926365;29;20040;-80
2021/08/17 07:48:24;;;;;;;20.75;9.63;;;;;;;;;;4951796;28;20110;-80
2021/08/17 07:50:50;;;;;;;14.40;9.68;;;;;;;;;;4945973;28;20040;-81
2021/08/17 07:53:16;;;;;;;12.43;9.63;;;;;;;;;;4904660;29;20058;-80
2021/08/17 07:55:41;;;;;;;14.13;9.77;;;;;;;;;;4959263;28;20125;-80
2021/08/17 07:58:07;;;;;;;13.65;10.40;;;;;;;;;;4901673;29;20066;-80
2021/08/17 08:00:32;;;;;;;15.10;10.20;;;;;;;;;;4931193;29;20418;-80
2021/08/17 08:02:58;;;;;;;14.27;10.63;;;;;;;;;;4949499;28;20154;-80
2021/08/17 08:05:23;;;;;;;16.38;10.73;;;;;;;;;;4917415;29;20495;-80
2021/08/17 08:07:49;;;;;;;19.98;10.20;;;;;;;;;;4933206;29;20101;-80
2021/08/17 08:10:14;;;;;;;15.02;9.80;;;;;;;;;;4949198;28;20039;-80
2021/08/17 08:12:40;;;;;;;16.00;9.93;;;;;;;;;;4928062;29;20122;-80
2021/08/17 08:15:06;;;;;;;16.30;10.23;;;;;;;;;;4952232;28;20514;-80
2021/08/17 08:17:31;;;;;;;17.92;10.68;;;;;;;;;;4920345;29;20070;-80
2021/08/17 08:19:59;;;;;;;14.13;10.07;;;;;;;;;;4920139;29;20814;-80
2021/08/17 08:22:25;;;;;;;16.88;9.90;;;;;;;;;;4920618;29;20198;-80
2021/08/17 08:24:50;;;;;;;15.45;10.20;;;;;;;;;;4920850;28;20086;-80
2021/08/17 08:27:16;;;;;;;21.98;10.43;;;;;;;;;;4938671;29;20051;-81
2021/08/17 08:29:43;;;;;;;15.73;11.30;;;;;;;;;;4948717;28;20130;-81
2021/08/17 08:32:09;;;;;;;23.75;11.02;;;;;;;;;;4932672;29;20166;-81
2021/08/17 08:34:34;;;;;;;17.67;8.98;;;;;;;;;;4951745;28;20130;-81
2021/08/17 08:37:00;;;;;;;17.73;11.32;;;;;;;;;;4951599;28;20868;-81
2021/08/17 08:39:25;;;;;;;18.45;11.50;;;;;;;;;;4952144;28;20039;-80
2021/08/17 08:41:51;;;;;;;21.85;12.48;;;;;;;;;;4938258;28;20090;-80
2021/08/17 08:44:16;;;;;;;16.98;11.27;;;;;;;;;;4920222;29;20078;-80
2021/08/17 08:46:42;;;;;;;18.10;11.73;;;;;;;;;;4947765;28;20042;-80
2021/08/17 08:49:07;;;;;;;20.38;11.23;;;;;;;;;;4934004;28;20118;-80
2021/08/17 08:51:35;;;;;;;17.65;11.60;;;;;;;;;;4927641;28;20032;-81
2021/08/17 08:54:01;;;;;;;21.48;12.27;;;;;;;;;;4921516;28;20502;-80
2021/08/17 08:56:27;;;;;;;21.15;12.95;;;;;;;;;;4949798;28;20035;-80
2021/08/17 08:58:53;;;;;;;17.77;11.43;;;;;;;;;;4937960;28;20074;-79
2021/08/17 09:01:19;;;;;;;19.05;12.30;;;;;;;;;;4939084;28;20043;-80
2021/08/17 09:03:49;;;;;;;21.13;12.07;;;;;;;;;;4948450;28;20036;-80
2021/08/17 09:06:15;;;;;;;16.08;10.07;;;;;;;;;;4946168;28;20409;-78
2021/08/17 09:08:40;;;;;;;15.68;10.10;;;;;;;;;;4965857;28;20086;-79
2021/08/17 09:11:17;;;;;;;15.77;10.50;;;;;;;;;;4949354;28;20035;-79
2021/08/17 09:13:42;;;;;;;16.60;11.02;;;;;;;;;;4938353;28;20043;-79
2021/08/17 09:16:27;;;;;;;21.17;12.15;;;;;;;;;;4963111;28;20041;-79
2021/08/17 09:18:53;;;;;;;18.00;10.55;;;;;;;;;;4976927;28;20085;-79
2021/08/17 09:21:39;;;;;;;17.35;10.32;;;;;;;;;;4929765;28;20055;-79
2021/08/17 09:24:19;;;;;;;17.00;11.07;;;;;;;;;;4963508;28;20086;-79
2021/08/17 09:26:49;;;;;;;18.13;11.85;;;;;;;;;;4963263;28;20518;-80
2021/08/17 09:29:24;;;;;;;17.63;10.73;;;;;;;;;;4949353;28;20126;-79
2021/08/17 09:31:52;;;;;;;17.08;11.32;;;;;;;;;;4948914;28;20501;-79
2021/08/17 09:34:18;;;;;;;16.02;9.75;;;;;;;;;;4947185;28;20547;-79
2021/08/17 09:36:46;;;;;;;15.32;8.95;;;;;;;;;;4946367;28;20043;-79
2021/08/17 09:39:11;;;;;;;14.52;9.18;;;;;;;;;;4946267;28;20461;-79
2021/08/17 09:41:37;;;;;;;15.27;9.57;;;;;;;;;;4949935;28;20023;-79
2021/08/17 09:44:04;;;;;;;16.15;9.73;;;;;;;;;;4948062;28;20053;-79
2021/08/17 09:46:31;;;;;;;14.75;10.38;;;;;;;;;;4930895;28;20035;-79
2021/08/17 09:48:56;;;;;;;15.70;9.80;;;;;;;;;;4966794;28;20109;-78
2021/08/17 09:51:34;;;;;;;13.80;8.25;;;;;;;;;;4947734;28;20038;-79
2021/08/17 09:54:17;;;;;;;15.02;9.45;;;;;;;;;;4947723;28;20049;-78
2021/08/17 09:56:42;;;;;;;15.40;10.05;;;;;;;;;;4961178;28;20044;-79
2021/08/17 09:59:08;;;;;;;13.75;9.48;;;;;;;;;;4963685;28;20030;-79
2021/08/17 10:01:33;;;;;;;17.75;9.07;;;;;;;;;;4960613;28;20040;-78
2021/08/17 10:03:59;;;;;;;11.80;8.70;;;;;;;;;;4947566;28;20031;-78
2021/08/17 10:06:26;;;;;;;14.90;8.95;;;;;;;;;;4945190;28;20036;-78
2021/08/17 10:08:51;;;;;;;16.50;10.52;;;;;;;;;;4946945;28;20051;-78
2021/08/17 10:11:17;;;;;;;14.68;8.95;;;;;;;;;;4972956;28;20520;-78
2021/08/17 10:13:42;;;;;;;14.57;9.90;;;;;;;;;;4963848;28;20043;-78
2021/08/17 10:16:08;;;;;;;15.20;10.48;;;;;;;;;;4963446;28;20082;-79
2021/08/17 10:18:34;;;;;;;14.07;8.98;;;;;;;;;;4955843;28;20037;-78
2021/08/17 10:21:02;;;;;;;13.68;9.15;;;;;;;;;;4947390;28;20027;-78
2021/08/17 10:23:27;;;;;;;11.77;8.50;;;;;;;;;;4962004;28;20043;-78
2021/08/17 10:25:58;;;;;;;12.05;8.30;;;;;;;;;;4928397;28;20054;-78
2021/08/17 10:28:36;;;;;;;10.68;7.88;;;;;;;;;;4944858;28;20030;-78
2021/08/17 10:31:11;;;;;;;10.60;7.50;;;;;;;;;;4944307;29;20031;-78
2021/08/17 10:33:38;;;;;;;14.10;8.52;;;;;;;;;;4937981;29;20494;-78
2021/08/17 10:36:03;;;;;;;17.35;9.32;;;;;;;;;;4953865;28;20041;-78
2021/08/17 10:38:29;;;;;;;11.50;7.75;;;;;;;;;;4960968;28;20035;-78
2021/08/17 10:40:54;;;;;;;11.35;7.85;;;;;;;;;;4971174;28;20035;-78
2021/08/17 10:43:21;;;;;;;11.80;6.60;;;;;;;;;;4964451;28;20426;-78
2021/08/17 10:45:50;;;;;;;13.45;7.43;;;;;;;;;;4956846;28;20077;-78
2021/08/17 10:48:54;;;;;;;12.68;6.60;;;;;;;;;;4947501;28;20070;-78
2021/08/17 10:51:23;;;;;;;12.18;7.95;;;;;;;;;;4965172;28;20043;-78
2021/08/17 10:53:50;;;;;;;11.65;7.10;;;;;;;;;;4970981;28;20039;-78
2021/08/17 10:56:25;;;;;;;12.38;7.68;;;;;;;;;;4929689;28;20031;-78
2021/08/17 10:58:53;;;;;;;11.90;8.15;;;;;;;;;;4947242;28;20413;-78
2021/08/17 11:01:34;;;;;;;12.85;8.35;;;;;;;;;;4947032;28;20062;-79
2021/08/17 11:04:18;;;;;;;10.63;7.63;;;;;;;;;;4978342;28;20049;-78
2021/08/17 11:06:44;;;;;;;13.18;6.85;;;;;;;;;;4977939;28;20039;-78
2021/08/17 11:09:13;;;;;;;10.35;7.28;;;;;;;;;;4959715;28;20117;-78
2021/08/17 11:11:40;;;;;;;9.90;7.10;;;;;;;;;;4961194;28;20031;-78
2021/08/17 11:14:16;;;;;;;11.20;6.30;;;;;;;;;;4937218;28;20077;-78
2021/08/17 11:16:47;;;;;;;11.55;7.40;;;;;;;;;;4947165;28;20043;-78
2021/08/17 11:19:12;;;;;;;11.30;6.95;;;;;;;;;;4947146;28;20391;-78
2021/08/17 11:21:43;;;;;;;9.65;7.03;;;;;;;;;;4944517;28;20086;-78
2021/08/17 11:24:12;;;;;;;14.73;6.95;;;;;;;;;;4963073;28;20031;-78
2021/08/17 11:26:38;;;;;;;12.48;6.00;;;;;;;;;;4969377;28;20401;-78
2021/08/17 11:29:03;;;;;;;11.32;7.32;;;;;;;;;;4943004;28;20043;-78
2021/08/17 11:31:29;;;;;;;13.05;8.00;;;;;;;;;;4952121;28;20469;-78
2021/08/17 11:34:14;;;;;;;10.82;8.02;;;;;;;;;;4932396;28;20048;-78
2021/08/17 11:36:39;;;;;;;11.50;6.78;;;;;;;;;;4952020;28;20110;-83
2021/08/17 11:39:19;;;;;;;9.23;7.25;;;;;;;;;;4924850;29;20109;-82
2021/08/17 11:41:44;;;;;;;24.25;7.75;;;;;;;;;;4936279;28;20032;-81
2021/08/17 11:44:13;;;;;;;19.33;9.00;;;;;;;;;;4949858;28;20094;-81
2021/08/17 11:46:41;;;;;;;14.68;8.13;;;;;;;;;;4939446;28;20118;-81
2021/08/17 11:49:26;;;;;;;20.85;8.60;;;;;;;;;;4933815;28;20032;-81
2021/08/17 11:52:21;;;;;;;11.98;5.97;;;;;;;;;;4949620;28;20039;-81
2021/08/17 11:54:58;;;;;;;10.50;6.07;;;;;;;;;;4949823;28;20441;-81
2021/08/17 11:57:28;;;;;;;9.07;6.20;;;;;;;;;;4949118;28;20051;-82
2021/08/17 11:59:53;;;;;;;9.38;6.03;;;;;;;;;;4949761;28;20042;-81
2021/08/17 12:02:24;;;;;;;9.65;5.72;;;;;;;;;;4949587;28;20491;-81
2021/08/17 12:05:00;;;;;;;9.23;5.80;;;;;;;;;;4933223;29;20039;-81
2021/08/17 12:07:29;;;;;;;12.70;6.07;;;;;;;;;;4933260;29;20032;-81
2021/08/17 12:09:55;;;;;;;8.15;5.95;;;;;;;;;;4933784;28;20046;-82
2021/08/17 12:12:55;;;;;;;7.90;5.32;;;;;;;;;;4917219;29;20035;-81
2021/08/17 12:15:36;;;;;;;7.68;4.70;;;;;;;;;;4948890;28;20046;-81
2021/08/17 12:18:10;;;;;;;8.20;5.45;;;;;;;;;;4950042;28;20039;-81
2021/08/17 12:20:38;;;;;;;9.65;6.45;;;;;;;;;;4951527;28;20110;-81
2021/08/17 12:23:18;;;;;;;8.98;5.38;;;;;;;;;;4935799;29;20046;-81
2021/08/17 12:25:44;;;;;;;12.45;5.93;;;;;;;;;;4955374;28;20112;-81
2021/08/17 12:28:13;;;;;;;8.30;5.53;;;;;;;;;;4924249;29;20042;-81
2021/08/17 12:30:38;;;;;;;10.95;6.10;;;;;;;;;;4932680;28;20043;-82
2021/08/17 12:33:04;;;;;;;7.47;5.55;;;;;;;;;;4941489;28;20035;-82
2021/08/17 12:35:36;;;;;;;8.90;6.35;;;;;;;;;;4927287;28;20038;-82
2021/08/17 12:38:15;;;;;;;10.30;6.72;;;;;;;;;;4953721;28;20394;-82
2021/08/17 12:40:47;;;;;;;8.45;6.50;;;;;;;;;;4945148;28;20039;-83
2021/08/17 12:43:26;;;;;;;8.45;6.63;;;;;;;;;;4962266;28;20023;-84
2021/08/17 12:45:52;;;;;;;8.32;6.28;;;;;;;;;;4941210;28;20039;-83
2021/08/17 12:48:18;;;;;;;8.65;6.35;;;;;;;;;;4932767;28;20457;-83
2021/08/17 12:50:44;;;;;;;8.57;6.18;;;;;;;;;;4931715;28;20062;-82
2021/08/17 12:53:20;;;;;;;8.95;5.88;;;;;;;;;;4935181;28;20042;-83
2021/08/17 12:55:45;;;;;;;8.23;5.93;;;;;;;;;;4929374;28;20039;-82
2021/08/17 12:58:11;;;;;;;8.00;5.70;;;;;;;;;;4938425;28;20084;-82
2021/08/17 13:00:36;;;;;;;8.65;5.22;;;;;;;;;;4931059;29;20467;-82
2021/08/17 13:03:06;;;;;;;7.20;5.00;;;;;;;;;;4952158;28;20043;-82
2021/08/17 13:05:31;;;;;;;8.73;4.70;;;;;;;;;;4955143;28;20056;-82
2021/08/17 13:07:56;;;;;;;7.05;5.28;;;;;;;;;;4928854;28;20580;-83
2021/08/17 13:10:22;;;;;;;8.38;4.85;;;;;;;;;;4959206;28;20046;-82
2021/08/17 13:12:48;;;;;;;7.15;4.63;;;;;;;;;;4935818;28;20059;-82
2021/08/17 13:15:14;;;;;;;5.57;3.95;;;;;;;;;;4932807;28;20036;-82
2021/08/17 13:17:39;;;;;;;7.80;4.97;;;;;;;;;;4943005;28;20110;-82
2021/08/17 13:20:07;;;;;;;6.50;3.85;;;;;;;;;;4948189;28;20039;-82
2021/08/17 13:22:32;;;;;;;7.15;4.18;;;;;;;;;;4933138;29;20126;-82
2021/08/17 13:24:58;;;;;;;6.15;3.45;;;;;;;;;;4935028;29;20050;-82
2021/08/17 13:27:23;;;;;;;6.10;3.53;;;;;;;;;;4962989;28;20050;-82
2021/08/17 13:29:48;;;;;;;6.63;3.92;;;;;;;;;;4964704;28;20042;-82
2021/08/17 13:32:14;;;;;;;7.40;3.88;;;;;;;;;;4932348;28;20065;-82
2021/08/17 13:34:39;;;;;;;6.25;3.63;;;;;;;;;;4950078;28;20417;-82
2021/08/17 13:37:07;;;;;;;5.30;2.97;;;;;;;;;;4933394;28;20489;-83
2021/08/17 13:39:33;;;;;;;5.55;4.07;;;;;;;;;;4948600;28;20063;-83
2021/08/17 13:41:58;;;;;;;5.90;3.83;;;;;;;;;;4940085;28;20036;-83
2021/08/17 13:44:24;;;;;;;11.88;3.50;;;;;;;;;;4945428;28;20050;-83
2021/08/17 13:46:50;;;;;;;7.35;4.00;;;;;;;;;;4942610;29;20401;-84
2021/08/17 13:49:15;;;;;;;5.20;2.92;;;;;;;;;;4938621;28;20035;-83
2021/08/17 13:51:40;;;;;;;5.00;3.75;;;;;;;;;;4945523;28;20572;-84
2021/08/17 13:54:06;;;;;;;5.80;3.00;;;;;;;;;;4935225;29;20503;-83
2021/08/17 13:56:31;;;;;;;4.88;2.88;;;;;;;;;;4933501;29;20043;-85
2021/08/17 13:58:57;;;;;;;5.50;2.92;;;;;;;;;;4929365;28;20032;-83
2021/08/17 14:01:23;;;;;;;4.75;2.85;;;;;;;;;;4938134;28;20035;-83
2021/08/17 14:03:48;;;;;;;5.10;2.38;;;;;;;;;;4935038;29;20023;-83
2021/08/17 14:06:14;;;;;;;7.20;2.90;;;;;;;;;;4969613;28;20553;-83
2021/08/17 14:08:40;;;;;;;4.68;2.75;;;;;;;;;;4938332;29;20031;-83
2021/08/17 14:11:05;;;;;;;4.40;2.67;;;;;;;;;;4950994;28;20124;-83
2021/08/17 14:13:31;;;;;;;7.53;3.35;;;;;;;;;;4935705;28;20048;-83
2021/08/17 14:16:01;;;;;;;5.35;2.63;;;;;;;;;;4945639;29;20046;-83
2021/08/17 14:18:37;;;;;;;4.75;2.80;;;;;;;;;;4955279;28;20043;-83
2021/08/17 14:21:05;;;;;;;5.68;2.67;;;;;;;;;;4954241;28;20546;-83
2021/08/17 14:23:32;;;;;;;4.53;2.55;;;;;;;;;;4938020;28;20079;-84
2021/08/17 14:25:58;;;;;;;4.90;2.60;;;;;;;;;;4936358;28;20059;-83